Time;durP1;ratioP1;P1;durP2;ratioP2;P2;SDS_P1;SDS_P2;PMS_P1;PMS_P2;Temp;Humidity;BMP_temperature;BMP_pressure;BME280_temperature;BME280_humidity;BME280_pressure;Samples;Min_cycle;Max_cycle;Signal;HPM_P1;HPM_P2
2022/03/17 00:01:30;;;;;;;25.52;16.98;;;10.60;99.90;;;;;;5134730;27;20513;-82
2022/03/17 00:04:14;;;;;;;24.13;16.85;;;10.60;99.90;;;;;;5135783;27;20103;-82
2022/03/17 00:06:59;;;;;;;28.35;16.88;;;10.60;99.90;;;;;;5135270;27;20076;-82
2022/03/17 00:09:43;;;;;;;26.10;17.83;;;10.60;99.90;;;;;;5135126;27;20038;-82
2022/03/17 00:12:28;;;;;;;26.38;17.70;;;10.60;99.90;;;;;;5134547;27;20181;-82
2022/03/17 00:15:12;;;;;;;27.45;16.92;;;10.60;99.90;;;;;;5120151;27;20038;-83
2022/03/17 00:17:57;;;;;;;23.42;17.25;;;10.60;99.90;;;;;;5136086;27;20039;-82
2022/03/17 00:20:41;;;;;;;25.67;17.77;;;10.60;99.90;;;;;;5135204;27;20403;-82
2022/03/17 00:23:25;;;;;;;;;;;10.50;99.90;;;;;;5135783;27;20095;-82
2022/03/17 00:26:11;;;;;;;29.35;18.77;;;10.50;99.90;;;;;;5120010;27;19917;-84
2022/03/17 00:28:55;;;;;;;28.08;17.50;;;10.50;99.90;;;;;;5137037;27;20556;-82
2022/03/17 00:31:39;;;;;;;29.80;17.67;;;10.50;99.90;;;;;;5115372;28;20047;-82
2022/03/17 00:34:24;;;;;;;25.52;17.00;;;10.50;99.90;;;;;;5142389;27;20092;-82
2022/03/17 00:37:08;;;;;;;27.48;18.90;;;10.50;99.90;;;;;;5128760;27;20043;-82
2022/03/17 00:39:53;;;;;;;25.33;17.60;;;10.50;99.90;;;;;;5114254;28;20147;-81
2022/03/17 00:42:39;;;;;;;26.73;16.92;;;10.50;99.90;;;;;;5118151;27;20110;-82
2022/03/17 00:45:24;;;;;;;28.30;18.58;;;10.40;99.90;;;;;;5135150;27;20524;-82
2022/03/17 00:48:08;;;;;;;32.13;18.83;;;10.50;99.90;;;;;;5149369;27;20084;-82
2022/03/17 00:50:53;;;;;;;25.42;16.92;;;10.50;99.90;;;;;;5135658;27;20080;-82
2022/03/17 00:53:37;;;;;;;25.88;17.35;;;10.50;99.90;;;;;;5148994;27;20043;-81
2022/03/17 00:56:22;;;;;;;23.77;17.35;;;10.50;99.90;;;;;;5133614;27;20230;-83
2022/03/17 00:59:06;;;;;;;28.05;17.98;;;10.50;99.90;;;;;;5134343;27;20160;-82
2022/03/17 01:01:51;;;;;;;27.02;17.95;;;10.50;99.90;;;;;;5105284;27;20112;-82
2022/03/17 01:04:35;;;;;;;27.92;18.83;;;10.50;99.90;;;;;;5133760;27;20049;-81
2022/03/17 01:07:19;;;;;;;29.35;19.77;;;10.40;99.90;;;;;;5133639;27;20039;-82
2022/03/17 01:10:08;;;;;;;29.23;18.65;;;10.50;99.90;;;;;;5117912;27;20034;-82
2022/03/17 01:12:53;;;;;;;28.30;18.40;;;10.40;99.90;;;;;;5135195;27;20038;-81
2022/03/17 01:15:37;;;;;;;25.48;17.65;;;10.40;99.90;;;;;;5119004;27;20042;-82
2022/03/17 01:18:21;;;;;;;;;;;10.40;99.90;;;;;;5133829;27;20042;-82
2022/03/17 01:21:06;;;;;;;26.13;18.55;;;10.40;99.90;;;;;;5134893;27;19927;-81
2022/03/17 01:23:51;;;;;;;26.27;18.60;;;10.40;99.90;;;;;;5136950;27;20046;-82
2022/03/17 01:26:35;;;;;;;28.00;19.73;;;10.40;99.90;;;;;;5121741;27;20869;-82
2022/03/17 01:29:20;;;;;;;26.70;18.45;;;10.40;99.90;;;;;;5133878;27;20544;-82
2022/03/17 01:32:04;;;;;;;;;;;10.40;99.90;;;;;;5134117;27;20068;-82
2022/03/17 01:34:49;;;;;;;30.73;20.08;;;10.40;99.90;;;;;;5133828;27;20324;-82
2022/03/17 01:37:34;;;;;;;27.45;19.33;;;10.40;99.90;;;;;;5133053;27;20096;-82
2022/03/17 01:40:18;;;;;;;27.80;19.13;;;10.40;99.90;;;;;;5118671;27;20042;-84
2022/03/17 01:43:02;;;;;;;28.50;19.08;;;10.40;99.90;;;;;;5133287;27;20046;-81
2022/03/17 01:45:47;;;;;;;26.77;18.30;;;10.40;99.90;;;;;;5147393;27;20058;-81
2022/03/17 01:48:31;;;;;;;28.92;18.88;;;10.40;99.90;;;;;;5147503;27;20037;-82
2022/03/17 01:51:16;;;;;;;28.48;19.55;;;10.40;99.90;;;;;;5132555;27;20089;-82
2022/03/17 01:54:00;;;;;;;27.10;17.60;;;10.40;99.90;;;;;;5133157;27;20042;-82
2022/03/17 01:56:46;;;;;;;29.25;18.83;;;10.40;99.90;;;;;;5133864;27;20057;-82
2022/03/17 01:59:32;;;;;;;27.20;17.85;;;10.40;99.90;;;;;;5132628;27;20042;-82
2022/03/17 02:02:17;;;;;;;27.10;17.63;;;10.40;99.90;;;;;;5134187;27;20061;-82
2022/03/17 02:05:03;;;;;;;27.05;17.75;;;10.60;99.90;;;;;;5133134;27;20046;-82
2022/03/17 02:07:51;;;;;;;28.05;18.98;;;10.40;99.90;;;;;;5131873;27;20038;-82
2022/03/17 02:13:39;;;;;;;27.70;19.73;;;10.50;99.90;;;;;;5132572;27;20130;-81
2022/03/17 02:16:23;;;;;;;27.85;18.75;;;10.50;99.90;;;;;;5132534;27;20046;-84
2022/03/17 02:19:07;;;;;;;27.75;19.50;;;10.50;99.90;;;;;;5112055;28;20058;-82
2022/03/17 02:21:51;;;;;;;;;;;10.50;99.90;;;;;;5113651;28;20046;-82
2022/03/17 02:27:47;;;;;;;26.02;19.20;;;10.50;99.90;;;;;;5112720;28;20407;-82
2022/03/17 02:30:34;;;;;;;30.10;20.17;;;10.50;99.90;;;;;;5129860;27;20088;-82
2022/03/17 02:33:18;;;;;;;26.58;18.65;;;10.50;99.90;;;;;;5133655;27;20038;-82
2022/03/17 02:36:03;;;;;;;29.20;19.58;;;10.40;99.90;;;;;;5118061;27;20073;-83
2022/03/17 02:38:47;;;;;;;28.38;19.25;;;10.40;99.90;;;;;;5132953;27;20043;-82
2022/03/17 02:41:32;;;;;;;29.20;19.75;;;10.50;99.90;;;;;;5161364;27;20041;-83
2022/03/17 02:44:17;;;;;;;29.75;20.42;;;10.40;99.90;;;;;;5097723;28;20129;-82
2022/03/17 02:47:01;;;;;;;28.73;19.92;;;10.40;99.90;;;;;;5112908;28;20042;-83
2022/03/17 02:49:46;;;;;;;;;;;10.40;99.90;;;;;;5139844;27;20197;-82
2022/03/17 02:52:31;;;;;;;30.25;19.77;;;10.40;99.90;;;;;;5131604;27;19930;-82
2022/03/17 02:55:15;;;;;;;28.40;19.50;;;10.40;99.90;;;;;;5133223;27;20083;-82
2022/03/17 02:57:59;;;;;;;27.77;20.10;;;10.40;99.90;;;;;;5132241;27;20459;-81
2022/03/17 03:00:44;;;;;;;28.15;20.60;;;10.40;99.90;;;;;;5131501;27;20115;-82
2022/03/17 03:03:28;;;;;;;29.02;18.92;;;10.30;99.90;;;;;;5125058;28;20414;-84
2022/03/17 03:06:13;;;;;;;;;;;9.90;99.90;;;;;;5133639;28;20446;-81
2022/03/17 03:08:59;;;;;;;27.15;20.52;;;10.30;99.90;;;;;;5112707;28;19914;-82
2022/03/17 03:11:43;;;;;;;27.48;20.02;;;10.30;99.90;;;;;;5126640;27;20050;-81
2022/03/17 03:14:29;;;;;;;31.83;19.92;;;10.30;99.90;;;;;;5141661;27;20039;-81
2022/03/17 03:17:13;;;;;;;28.60;20.52;;;10.30;99.90;;;;;;5112103;28;20498;-81
2022/03/17 03:19:57;;;;;;;29.33;20.77;;;10.30;99.90;;;;;;5112020;28;20069;-81
2022/03/17 03:22:41;;;;;;;27.75;20.35;;;10.30;99.90;;;;;;5140460;27;20106;-82
2022/03/17 03:25:25;;;;;;;29.63;21.27;;;10.30;99.90;;;;;;5122229;28;20108;-82
2022/03/17 03:28:11;;;;;;;28.13;20.45;;;10.40;99.90;;;;;;5133047;28;20034;-81
2022/03/17 03:30:55;;;;;;;30.08;19.77;;;10.40;99.90;;;;;;5132449;28;20135;-81
2022/03/17 03:33:39;;;;;;;32.72;20.63;;;10.40;99.90;;;;;;5131337;28;20436;-82
2022/03/17 03:39:26;;;;;;;31.23;21.73;;;10.60;99.90;;;;;;5132642;28;20057;-82
2022/03/17 03:42:11;;;;;;;30.02;22.10;;;10.40;99.90;;;;;;5131825;28;20046;-82
2022/03/17 03:44:55;;;;;;;28.23;21.58;;;10.40;99.90;;;;;;5096353;28;20069;-81
2022/03/17 03:47:39;;;;;;;;;;;10.40;99.90;;;;;;5112052;28;20502;-82
2022/03/17 03:50:25;;;;;;;31.65;21.17;;;10.40;99.90;;;;;;5112398;28;20374;-82
2022/03/17 03:53:09;;;;;;;28.92;21.25;;;10.40;99.90;;;;;;5126254;27;20076;-82
2022/03/17 03:55:54;;;;;;;32.08;20.67;;;10.40;99.90;;;;;;5110606;28;20038;-81
2022/03/17 03:58:38;;;;;;;;;;;10.50;99.90;;;;;;5112005;28;20046;-83
2022/03/17 04:01:22;;;;;;;29.73;20.77;;;10.40;99.90;;;;;;5112184;28;19926;-81
2022/03/17 04:04:07;;;;;;;29.60;20.75;;;10.40;99.90;;;;;;5114050;28;20057;-81
2022/03/17 04:06:58;;;;;;;29.30;21.90;;;10.50;99.90;;;;;;5131052;28;20042;-82
2022/03/17 04:09:42;;;;;;;30.33;21.35;;;10.50;99.90;;;;;;5134212;27;20041;-82
2022/03/17 04:12:26;;;;;;;31.40;23.33;;;10.50;99.90;;;;;;5136366;27;20148;-81
2022/03/17 04:15:10;;;;;;;31.80;23.30;;;10.50;99.90;;;;;;5120865;27;20034;-81
2022/03/17 04:17:54;;;;;;;;;;;10.50;99.90;;;;;;5120547;27;20057;-82
2022/03/17 04:20:38;;;;;;;34.38;24.15;;;10.60;99.90;;;;;;5135893;27;19938;-84
2022/03/17 04:23:23;;;;;;;36.92;25.20;;;10.40;99.90;;;;;;5135277;27;20046;-81
2022/03/17 04:26:07;;;;;;;40.05;25.58;;;10.30;99.90;;;;;;5114552;28;20047;-81
2022/03/17 04:28:51;;;;;;;;;;;10.20;99.90;;;;;;5114298;28;20151;-83
2022/03/17 04:31:35;;;;;;;37.13;26.15;;;10.20;99.90;;;;;;5114597;28;19918;-82
2022/03/17 04:34:20;;;;;;;37.33;26.92;;;10.10;99.90;;;;;;5114616;28;20085;-81
2022/03/17 04:37:04;;;;;;;38.40;26.80;;;10.00;99.90;;;;;;5113911;27;20046;-81
2022/03/17 04:39:48;;;;;;;39.20;28.60;;;10.00;99.90;;;;;;5114763;28;20097;-82
2022/03/17 04:42:33;;;;;;;40.92;28.98;;;9.90;99.90;;;;;;5128767;27;20042;-82
2022/03/17 04:45:17;;;;;;;42.40;29.60;;;9.90;99.90;;;;;;5132328;27;20042;-81
2022/03/17 04:48:01;;;;;;;;;;;9.80;99.90;;;;;;5135535;27;20066;-81
2022/03/17 04:50:45;;;;;;;45.92;31.15;;;9.80;99.90;;;;;;5134024;27;20381;-81
2022/03/17 04:53:31;;;;;;;48.30;33.42;;;9.70;99.90;;;;;;5119955;27;20443;-81
2022/03/17 04:56:19;;;;;;;51.78;33.25;;;9.60;99.90;;;;;;5135446;27;20103;-81
2022/03/17 04:59:03;;;;;;;50.70;32.85;;;9.70;99.90;;;;;;5134583;27;20100;-81
2022/03/17 05:01:48;;;;;;;58.35;35.05;;;9.50;99.90;;;;;;5104587;27;20482;-82
2022/03/17 05:04:32;;;;;;;57.75;36.35;;;9.50;99.90;;;;;;5134002;27;20076;-82
2022/03/17 05:07:16;;;;;;;55.55;33.47;;;9.50;99.90;;;;;;5119679;27;20035;-80
2022/03/17 05:10:01;;;;;;;;;;;9.50;99.90;;;;;;5135011;27;20400;-81
2022/03/17 05:12:46;;;;;;;62.20;36.78;;;9.50;99.90;;;;;;5133717;27;19953;-83
2022/03/17 05:15:31;;;;;;;68.30;38.05;;;9.40;99.90;;;;;;5134126;27;20520;-80
2022/03/17 05:18:16;;;;;;;36.50;21.60;;;10.20;99.90;;;;;;5134580;27;20497;-80
2022/03/17 05:21:01;;;;;;;24.25;14.18;;;;;;;;;;5133223;27;20042;-80
2022/03/17 05:23:45;;;;;;;17.92;11.70;;;;;;;;;;5134826;27;20091;-80
2022/03/17 05:26:30;;;;;;;10.80;7.93;;;9.10;99.90;;;;;;5134542;27;20057;-80
2022/03/17 05:29:13;;;;;;;;;;;9.00;99.90;;;;;;5134305;27;20486;-80
2022/03/17 05:31:58;;;;;;;9.43;7.50;;;8.70;99.90;;;;;;5118537;27;19959;-80
2022/03/17 05:34:42;;;;;;;9.68;6.80;;;8.60;99.90;;;;;;5134655;27;20414;-81
2022/03/17 05:37:26;;;;;;;10.85;7.85;;;8.40;99.90;;;;;;5133559;27;20073;-80
2022/03/17 05:40:14;;;;;;;;;;;8.40;99.90;;;;;;5113852;28;20147;-80
2022/03/17 05:43:00;;;;;;;10.75;7.43;;;8.20;99.90;;;;;;5113364;28;20015;-81
2022/03/17 05:45:45;;;;;;;11.02;7.55;;;8.20;99.90;;;;;;5112771;28;20062;-80
2022/03/17 05:48:29;;;;;;;;;;;8.10;99.90;;;;;;5129637;27;20060;-80
2022/03/17 05:51:13;;;;;;;9.98;7.28;;;8.10;99.90;;;;;;5132657;27;19919;-80
2022/03/17 05:53:57;;;;;;;15.88;9.32;;;8.00;99.90;;;;;;5132479;27;20084;-81
2022/03/17 05:56:41;;;;;;;20.52;9.95;;;8.00;99.90;;;;;;5132846;27;20035;-80
2022/03/17 05:59:26;;;;;;;22.40;10.05;;;8.00;99.90;;;;;;5099296;27;20038;-80
2022/03/17 06:02:10;;;;;;;25.40;11.02;;;8.00;99.90;;;;;;5111296;27;20101;-80
2022/03/17 06:04:54;;;;;;;;;;;7.90;99.90;;;;;;5126673;27;20200;-82
2022/03/17 06:07:50;;;;;;;24.33;11.77;;;7.90;99.90;;;;;;5128057;27;19919;-80
2022/03/17 06:10:34;;;;;;;21.88;12.18;;;7.80;99.90;;;;;;5112247;28;20042;-81
2022/03/17 06:13:18;;;;;;;26.08;11.18;;;7.90;99.90;;;;;;5126733;27;20123;-80
2022/03/17 06:16:03;;;;;;;27.38;12.65;;;8.00;99.90;;;;;;5140631;27;20127;-80
2022/03/17 06:18:48;;;;;;;22.38;11.15;;;7.80;99.90;;;;;;5140539;27;20126;-80
2022/03/17 06:21:32;;;;;;;19.60;10.82;;;7.80;99.90;;;;;;5118607;27;20034;-80
2022/03/17 06:24:17;;;;;;;25.77;11.07;;;7.70;99.90;;;;;;5128452;27;20173;-80
2022/03/17 06:27:01;;;;;;;;;;;7.70;99.90;;;;;;5128926;27;20394;-80
2022/03/17 06:29:45;;;;;;;18.80;9.68;;;7.70;99.90;;;;;;5132993;27;19918;-79
2022/03/17 06:32:29;;;;;;;21.98;8.68;;;7.70;99.90;;;;;;5115014;27;20114;-79
2022/03/17 06:35:17;;;;;;;;;;;7.70;99.90;;;;;;5129940;27;20068;-79
2022/03/17 06:38:05;;;;;;;20.63;8.50;;;7.70;99.90;;;;;;5127786;27;20442;-80
2022/03/17 06:40:49;;;;;;;20.77;7.85;;;7.60;99.90;;;;;;5129314;27;20448;-80
2022/03/17 06:43:33;;;;;;;22.65;7.57;;;7.60;99.90;;;;;;5131698;27;20502;-80
2022/03/17 06:46:17;;;;;;;;;;;7.70;99.90;;;;;;5132601;27;20252;-80
2022/03/17 06:49:01;;;;;;;25.85;8.68;;;7.60;99.90;;;;;;5132066;27;19922;-81
2022/03/17 06:51:46;;;;;;;17.02;5.88;;;7.60;99.90;;;;;;5131264;27;20149;-79
2022/03/17 06:54:29;;;;;;;;;;;7.60;99.90;;;;;;5133134;27;20155;-80
2022/03/17 06:57:22;;;;;;;14.75;5.15;;;7.60;99.90;;;;;;5131957;27;20324;-79
2022/03/17 07:00:09;;;;;;;15.63;5.25;;;7.50;99.90;;;;;;5129231;27;20395;-80
2022/03/17 07:02:53;;;;;;;18.95;5.50;;;7.50;99.90;;;;;;5131537;27;20184;-81
2022/03/17 07:05:37;;;;;;;14.35;6.43;;;7.50;99.90;;;;;;5119346;28;20421;-81
2022/03/17 07:08:21;;;;;;;6.90;3.10;;;7.50;99.90;;;;;;5129719;28;20117;-80
2022/03/17 07:11:05;;;;;;;;;;;7.50;99.90;;;;;;5131346;28;20103;-80
2022/03/17 07:13:49;;;;;;;11.75;2.92;;;7.50;99.90;;;;;;5131936;28;19964;-80
2022/03/17 07:16:33;;;;;;;7.03;2.58;;;7.50;99.90;;;;;;5137976;27;20089;-81
2022/03/17 07:19:17;;;;;;;;;;;7.60;99.90;;;;;;5132516;28;20042;-80
2022/03/17 07:22:03;;;;;;;13.10;3.47;;;7.50;99.90;;;;;;5123803;28;19922;-83
2022/03/17 07:24:47;;;;;;;10.60;3.17;;;7.50;99.90;;;;;;5141162;27;20043;-81
2022/03/17 07:27:33;;;;;;;;;;;7.50;99.90;;;;;;5132137;28;20046;-81
2022/03/17 07:30:20;;;;;;;15.30;3.00;;;7.50;99.90;;;;;;5128786;28;20320;-81
2022/03/17 07:33:04;;;;;;;7.72;2.33;;;8.00;99.90;;;;;;5131258;28;20081;-84
2022/03/17 07:35:48;;;;;;;13.70;3.63;;;7.50;99.90;;;;;;5131756;28;20041;-81
2022/03/17 07:38:32;;;;;;;;;;;7.60;99.90;;;;;;5132920;28;20042;-80
2022/03/17 07:41:16;;;;;;;11.13;2.95;;;7.50;99.90;;;;;;5127654;27;19922;-81
2022/03/17 07:44:02;;;;;;;8.13;2.22;;;7.60;99.90;;;;;;5133082;27;20073;-81
2022/03/17 07:46:48;;;;;;;13.68;3.65;;;7.60;99.90;;;;;;5135268;27;20118;-82
2022/03/17 07:49:32;;;;;;;11.13;2.65;;;7.60;99.90;;;;;;5120356;27;20087;-81
2022/03/17 07:52:16;;;;;;;9.80;2.55;;;7.60;99.90;;;;;;5135133;27;20045;-81
2022/03/17 07:55:00;;;;;;;;;;;7.50;99.90;;;;;;5136581;27;20161;-81
2022/03/17 07:57:45;;;;;;;10.35;2.40;;;7.80;99.90;;;;;;5121034;27;20056;-81
2022/03/17 08:00:30;;;;;;;12.93;2.22;;;7.50;99.90;;;;;;5135411;27;20042;-81
2022/03/17 08:03:14;;;;;;;11.45;2.42;;;7.50;99.90;;;;;;5135747;27;20406;-82
2022/03/17 08:05:59;;;;;;;10.13;1.98;;;7.80;99.90;;;;;;5120612;27;20050;-81
2022/03/17 08:08:46;;;;;;;12.48;2.30;;;7.50;99.90;;;;;;5136187;27;20080;-82
2022/03/17 08:11:30;;;;;;;11.02;2.10;;;7.50;99.90;;;;;;5120406;27;20050;-81
2022/03/17 08:14:16;;;;;;;15.55;2.40;;;7.90;99.90;;;;;;5113810;27;20055;-81
2022/03/17 08:17:00;;;;;;;21.63;2.67;;;8.50;99.90;;;;;;5135399;27;20440;-82
2022/03/17 08:19:44;;;;;;;11.02;2.17;;;7.50;99.90;;;;;;5135061;27;20084;-82
2022/03/17 08:22:28;;;;;;;14.65;2.45;;;7.50;99.90;;;;;;5110139;28;20082;-81
2022/03/17 08:25:13;;;;;;;12.88;2.65;;;7.60;99.90;;;;;;5104559;27;20034;-81
2022/03/17 08:27:58;;;;;;;18.17;2.45;;;7.50;99.90;;;;;;5102219;27;20034;-80
2022/03/17 08:30:42;;;;;;;18.33;2.80;;;7.50;99.90;;;;;;5134143;27;20034;-82
2022/03/17 08:33:27;;;;;;;23.20;2.92;;;8.00;99.90;;;;;;5143076;27;20395;-82
2022/03/17 08:36:11;;;;;;;14.40;2.90;;;7.50;99.90;;;;;;5126260;27;20034;-84
2022/03/17 08:38:55;;;;;;;;;;;7.50;99.90;;;;;;5133389;27;20082;-81
2022/03/17 08:41:39;;;;;;;18.45;2.78;;;7.50;99.90;;;;;;5133796;27;19960;-81
2022/03/17 08:44:23;;;;;;;13.02;2.20;;;7.60;99.90;;;;;;5133356;27;20066;-81
2022/03/17 08:50:11;;;;;;;15.90;3.07;;;7.60;99.90;;;;;;5134057;27;20066;-85
2022/03/17 08:52:56;;;;;;;9.80;2.88;;;7.60;99.90;;;;;;5133102;27;20150;-81
2022/03/17 08:55:40;;;;;;;;;;;7.60;99.90;;;;;;5124535;27;20066;-81
2022/03/17 08:58:24;;;;;;;17.10;2.88;;;7.60;99.90;;;;;;5112613;27;19933;-80
2022/03/17 09:01:08;;;;;;;12.38;2.38;;;7.60;99.90;;;;;;5127619;27;20054;-80
2022/03/17 09:03:53;;;;;;;16.58;2.80;;;7.50;99.90;;;;;;5147482;27;20408;-82
2022/03/17 09:06:37;;;;;;;19.35;2.60;;;7.50;99.90;;;;;;5116676;27;20059;-82
2022/03/17 09:09:21;;;;;;;15.82;3.08;;;7.50;99.90;;;;;;5132555;27;20065;-82
2022/03/17 09:12:06;;;;;;;;;;;7.50;99.90;;;;;;5133745;27;20560;-81
2022/03/17 09:14:50;;;;;;;14.88;2.63;;;7.60;99.90;;;;;;5134246;27;19913;-81
2022/03/17 09:17:40;;;;;;;12.35;2.97;;;7.60;99.90;;;;;;5118235;27;20085;-81
2022/03/17 09:20:25;;;;;;;17.73;2.95;;;7.70;99.90;;;;;;5132675;27;20114;-81
2022/03/17 09:23:09;;;;;;;14.52;3.20;;;7.80;99.90;;;;;;5125224;27;20444;-81
2022/03/17 09:25:53;;;;;;;12.27;3.13;;;7.90;99.90;;;;;;5118724;27;20450;-82
2022/03/17 09:28:37;;;;;;;;;;;7.90;99.90;;;;;;5133903;27;20661;-81
2022/03/17 09:31:22;;;;;;;13.13;2.55;;;7.90;99.90;;;;;;5132407;27;19963;-82
2022/03/17 09:34:07;;;;;;;12.52;1.98;;;7.80;99.90;;;;;;5132827;27;20038;-83
2022/03/17 09:36:51;;;;;;;14.88;3.10;;;7.80;99.90;;;;;;5130190;27;20052;-82
2022/03/17 09:39:49;;;;;;;17.02;3.22;;;7.80;99.90;;;;;;5138703;27;20076;-81
2022/03/17 09:42:34;;;;;;;13.88;3.10;;;8.00;99.90;;;;;;5132983;27;20047;-81
2022/03/17 09:45:18;;;;;;;16.02;2.78;;;8.50;99.90;;;;;;5113786;28;20039;-83
2022/03/17 09:48:03;;;;;;;13.93;2.83;;;7.80;99.90;;;;;;5098480;28;20049;-81
2022/03/17 09:50:55;;;;;;;8.73;2.53;;;7.90;99.90;;;;;;5123003;27;20080;-81
2022/03/17 09:53:40;;;;;;;10.38;3.17;;;8.00;99.90;;;;;;5132690;27;20178;-82
2022/03/17 09:56:24;;;;;;;11.02;2.72;;;8.30;99.90;;;;;;5118219;27;20046;-81
2022/03/17 09:59:08;;;;;;;12.07;2.13;;;8.40;99.90;;;;;;5134054;27;20109;-79
2022/03/17 10:01:53;;;;;;;15.07;2.95;;;8.50;99.90;;;;;;5103422;27;20072;-82
2022/03/17 10:04:42;;;;;;;14.40;2.72;;;8.70;99.90;;;;;;5115624;27;20399;-81
2022/03/17 10:07:27;;;;;;;13.38;2.60;;;8.80;99.90;;;;;;5129128;27;20042;-81
2022/03/17 10:10:12;;;;;;;13.82;2.67;;;8.90;99.90;;;;;;5112068;28;20038;-81
2022/03/17 10:13:10;;;;;;;12.45;2.35;;;9.00;99.90;;;;;;5112146;28;20100;-81
2022/03/17 10:16:19;;;;;;;12.57;3.03;;;9.30;99.90;;;;;;5126765;27;20104;-81
2022/03/17 10:19:08;;;;;;;11.82;2.35;;;9.20;99.90;;;;;;5113151;28;20529;-84
2022/03/17 10:21:52;;;;;;;11.60;2.53;;;9.40;99.90;;;;;;5121448;27;20042;-81
2022/03/17 10:24:37;;;;;;;9.25;1.85;;;9.60;99.90;;;;;;5129111;27;20058;-81
2022/03/17 10:27:41;;;;;;;13.80;3.30;;;9.60;99.90;;;;;;5114309;27;20038;-81
2022/03/17 10:30:34;;;;;;;;;;;9.60;99.90;;;;;;5129126;27;20126;-83
2022/03/17 10:33:20;;;;;;;10.50;2.15;;;9.70;99.90;;;;;;5130212;27;19960;-82
2022/03/17 10:36:21;;;;;;;11.70;2.30;;;9.90;99.90;;;;;;5114964;27;20077;-81
2022/03/17 10:39:09;;;;;;;11.95;3.00;;;10.20;99.90;;;;;;5131368;27;20452;-81
2022/03/17 10:41:53;;;;;;;10.32;2.35;;;10.50;99.90;;;;;;5133332;27;20057;-81
2022/03/17 10:44:39;;;;;;;15.05;2.70;;;10.60;99.90;;;;;;5117305;27;20500;-81
2022/03/17 10:47:34;;;;;;;12.68;2.65;;;10.70;99.90;;;;;;5117986;27;20034;-81
2022/03/17 10:50:20;;;;;;;15.18;2.10;;;11.00;99.90;;;;;;5133278;27;20486;-81
2022/03/17 10:53:04;;;;;;;14.60;2.33;;;11.10;99.90;;;;;;5132204;27;20042;-81
2022/03/17 10:55:49;;;;;;;7.10;1.80;;;11.10;99.90;;;;;;5116992;27;20060;-82
2022/03/17 10:58:41;;;;;;;12.98;2.55;;;11.00;99.90;;;;;;5131545;27;20078;-81
2022/03/17 11:01:45;;;;;;;11.90;2.58;;;10.80;99.90;;;;;;5132041;27;20095;-81
2022/03/17 11:04:30;;;;;;;19.95;3.58;;;10.70;99.90;;;;;;5132805;27;20070;-83
2022/03/17 11:07:15;;;;;;;9.63;2.70;;;10.50;99.90;;;;;;5132072;28;20038;-80
2022/03/17 11:10:05;;;;;;;15.25;2.53;;;10.40;99.90;;;;;;5132180;28;20126;-80
2022/03/17 11:12:50;;;;;;;11.93;2.90;;;10.50;99.90;;;;;;5131418;28;20046;-81
2022/03/17 11:15:34;;;;;;;9.90;1.83;;;10.80;99.90;;;;;;5132586;28;20045;-81
2022/03/17 11:18:20;;;;;;;9.23;2.22;;;10.80;99.90;;;;;;5135814;27;20542;-81
2022/03/17 11:21:21;;;;;;;11.93;2.53;;;10.70;99.90;;;;;;5137117;27;20046;-81
2022/03/17 11:24:06;;;;;;;13.02;2.80;;;10.70;99.90;;;;;;5137292;27;20543;-81
2022/03/17 11:27:24;;;;;;;10.07;2.40;;;10.70;99.90;;;;;;5136545;27;20077;-81
2022/03/17 11:30:16;;;;;;;16.05;3.00;;;10.90;99.90;;;;;;5136861;27;20057;-80
2022/03/17 11:33:01;;;;;;;11.93;3.55;;;11.00;99.90;;;;;;5136892;27;20088;-80
2022/03/17 11:35:56;;;;;;;12.00;3.03;;;11.10;99.90;;;;;;5135359;27;20038;-80
2022/03/17 11:38:58;;;;;;;11.65;2.58;;;11.20;99.90;;;;;;5135284;27;20035;-80
2022/03/17 11:41:43;;;;;;;10.95;3.08;;;11.40;99.90;;;;;;5136199;27;20042;-80
2022/03/17 11:44:33;;;;;;;13.50;2.50;;;11.60;99.90;;;;;;5135849;27;20390;-80
2022/03/17 11:47:27;;;;;;;13.00;2.63;;;11.60;99.90;;;;;;5136719;27;20046;-80
2022/03/17 11:50:24;;;;;;;12.63;2.47;;;11.80;99.90;;;;;;5135737;27;20069;-80
2022/03/17 11:53:14;;;;;;;9.80;2.40;;;11.80;99.90;;;;;;5135555;27;20401;-81
2022/03/17 11:56:00;;;;;;;10.60;2.25;;;11.50;99.90;;;;;;5134997;27;20083;-80
2022/03/17 11:58:46;;;;;;;12.30;2.60;;;11.30;99.90;;;;;;5134815;27;20060;-80
2022/03/17 12:01:35;;;;;;;11.95;2.75;;;11.30;99.90;;;;;;5135367;27;20138;-80
2022/03/17 12:04:31;;;;;;;9.27;3.08;;;11.20;99.90;;;;;;5136241;27;20061;-80
2022/03/17 12:07:18;;;;;;;11.38;2.20;;;11.20;99.90;;;;;;5136441;27;20505;-80
2022/03/17 12:10:02;;;;;;;11.50;2.58;;;11.20;99.90;;;;;;5135055;27;20084;-80
2022/03/17 12:12:48;;;;;;;11.10;2.45;;;11.20;99.90;;;;;;5134685;27;20038;-81
2022/03/17 12:15:39;;;;;;;9.68;2.13;;;11.20;99.90;;;;;;5135300;27;20118;-81
2022/03/17 12:18:23;;;;;;;11.40;2.17;;;11.40;99.90;;;;;;5121135;27;20042;-81
2022/03/17 12:21:08;;;;;;;12.23;2.80;;;11.50;99.90;;;;;;5134890;27;20083;-81
2022/03/17 12:23:53;;;;;;;10.32;1.90;;;11.40;99.90;;;;;;5134392;27;20118;-81
2022/03/17 12:26:38;;;;;;;10.48;2.22;;;11.20;99.90;;;;;;5135805;27;20438;-82
2022/03/17 12:29:26;;;;;;;7.93;1.88;;;11.00;99.90;;;;;;5135079;27;20172;-81
2022/03/17 12:32:19;;;;;;;12.07;2.55;;;10.90;99.90;;;;;;5134795;27;20046;-81
2022/03/17 12:35:04;;;;;;;9.98;2.55;;;10.80;99.90;;;;;;5135358;27;20042;-80
2022/03/17 12:37:48;;;;;;;12.90;2.53;;;10.90;99.90;;;;;;5134075;27;20041;-81
2022/03/17 12:40:35;;;;;;;13.27;3.40;;;10.90;99.90;;;;;;5134651;27;20084;-80
2022/03/17 12:43:22;;;;;;;8.32;2.17;;;10.90;99.90;;;;;;5135782;27;20068;-80
2022/03/17 12:46:06;;;;;;;12.50;2.85;;;10.90;99.90;;;;;;5134249;27;20467;-80
2022/03/17 12:48:50;;;;;;;8.77;2.38;;;11.10;99.90;;;;;;5133770;27;20043;-81
2022/03/17 12:51:34;;;;;;;;;;;11.20;99.90;;;;;;5134797;27;20406;-81
2022/03/17 12:54:18;;;;;;;8.98;2.35;;;11.20;98.70;;;;;;5134601;27;20393;-80
2022/03/17 12:57:03;;;;;;;11.15;2.78;;;11.20;99.90;;;;;;5119301;27;20083;-80
2022/03/17 12:59:47;;;;;;;8.93;1.98;;;11.20;99.90;;;;;;5133729;27;20037;-82
2022/03/17 13:02:32;;;;;;;12.02;2.33;;;11.40;99.90;;;;;;5148834;27;20548;-81
2022/03/17 13:08:24;;;;;;;9.95;1.48;;;11.60;99.30;;;;;;5135372;27;20096;-81
2022/03/17 13:14:21;;;;;;;13.35;2.30;;;12.20;96.60;;;;;;5135279;27;20064;-81
2022/03/17 13:17:07;;;;;;;8.68;2.13;;;12.20;97.90;;;;;;5133369;27;20544;-81
2022/03/17 13:19:51;;;;;;;10.43;2.22;;;12.40;98.30;;;;;;5134314;27;20038;-81
2022/03/17 13:22:39;;;;;;;9.18;1.88;;;12.50;98.10;;;;;;5133800;27;20050;-81
2022/03/17 13:25:24;;;;;;;12.82;2.08;;;12.70;97.50;;;;;;5134881;27;20082;-81
2022/03/17 13:28:15;;;;;;;13.50;2.22;;;12.70;96.30;;;;;;5133248;27;20052;-81
2022/03/17 13:30:59;;;;;;;11.75;2.05;;;12.70;96.50;;;;;;5133127;27;20406;-81
2022/03/17 13:33:51;;;;;;;14.98;2.17;;;12.70;96.30;;;;;;5134662;27;20529;-81
2022/03/17 13:36:56;;;;;;;9.35;2.35;;;12.70;95.40;;;;;;5133661;27;20078;-81
2022/03/17 13:39:41;;;;;;;6.78;2.00;;;12.70;94.60;;;;;;5134580;27;20084;-81
2022/03/17 13:42:25;;;;;;;;;;;12.60;95.00;;;;;;5133199;27;20042;-81
2022/03/17 13:45:09;;;;;;;10.40;2.17;;;12.50;93.70;;;;;;5118374;27;19980;-81
2022/03/17 13:48:08;;;;;;;7.70;1.85;;;12.50;94.80;;;;;;5118372;27;20053;-82
2022/03/17 13:50:55;;;;;;;9.48;1.80;;;12.50;94.20;;;;;;5133823;27;20041;-81
2022/03/17 13:53:40;;;;;;;8.85;2.45;;;12.60;94.70;;;;;;5133322;27;20038;-81
2022/03/17 13:56:27;;;;;;;7.97;1.55;;;12.70;93.90;;;;;;5134207;27;20042;-81
2022/03/17 13:59:15;;;;;;;9.57;2.10;;;12.70;93.30;;;;;;5132559;27;20034;-81
2022/03/17 14:02:12;;;;;;;7.93;2.00;;;12.60;93.40;;;;;;5132448;27;20091;-81
2022/03/17 14:04:57;;;;;;;11.52;2.83;;;12.70;93.50;;;;;;5132463;27;20130;-82
2022/03/17 14:07:41;;;;;;;8.27;1.80;;;12.60;92.60;;;;;;5134165;27;20140;-81
2022/03/17 14:10:25;;;;;;;12.68;1.98;;;12.60;93.20;;;;;;5133925;27;20042;-81
2022/03/17 14:13:10;;;;;;;4.32;1.70;;;12.50;91.70;;;;;;5132427;27;20239;-82
2022/03/17 14:15:54;;;;;;;6.25;1.85;;;12.40;91.40;;;;;;5132216;27;20042;-82
2022/03/17 14:18:39;;;;;;;10.10;1.63;;;12.30;91.00;;;;;;5132752;27;20069;-81
2022/03/17 14:21:25;;;;;;;8.40;1.95;;;12.30;91.30;;;;;;5133547;27;20042;-82
2022/03/17 14:24:12;;;;;;;9.20;1.92;;;12.20;90.90;;;;;;5133073;27;20033;-81
2022/03/17 14:26:56;;;;;;;8.10;1.70;;;12.20;91.00;;;;;;5132013;27;20071;-83
2022/03/17 14:29:41;;;;;;;7.57;2.00;;;12.20;91.00;;;;;;5132660;27;20446;-81
2022/03/17 14:32:25;;;;;;;9.48;1.70;;;12.10;91.00;;;;;;5118301;27;20049;-81
2022/03/17 14:35:09;;;;;;;6.82;1.90;;;12.10;91.30;;;;;;5131927;27;20042;-81
2022/03/17 14:37:53;;;;;;;7.15;1.60;;;12.20;91.30;;;;;;5132305;27;20038;-84
2022/03/17 14:40:37;;;;;;;6.10;1.75;;;12.20;90.90;;;;;;5132621;27;20144;-82
2022/03/17 14:43:21;;;;;;;7.72;1.95;;;12.20;91.00;;;;;;5133547;27;20046;-81